sensor_id;sensor_type;location;lat;lon;timestamp;P1;durP1;ratioP1;P2;durP2;ratioP2
9124;SDS011;4597;48.730;9.114;2023-08-01T00:01:45;2.77;;;2.57;;
9124;SDS011;4597;48.730;9.114;2023-08-01T00:04:10;5.60;;;2.93;;
9124;SDS011;4597;48.730;9.114;2023-08-01T00:06:36;2.83;;;2.63;;
9124;SDS011;4597;48.730;9.114;2023-08-01T00:09:02;3.00;;;2.70;;
9124;SDS011;4597;48.730;9.114;2023-08-01T00:11:27;2.80;;;2.60;;
9124;SDS011;4597;48.730;9.114;2023-08-01T00:13:53;2.80;;;2.60;;
9124;SDS011;4597;48.730;9.114;2023-08-01T00:16:18;3.60;;;3.00;;
9124;SDS011;4597;48.730;9.114;2023-08-01T00:18:44;3.10;;;2.70;;
9124;SDS011;4597;48.730;9.114;2023-08-01T00:21:09;2.80;;;2.60;;
9124;SDS011;4597;48.730;9.114;2023-08-01T00:23:36;3.20;;;2.60;;
9124;SDS011;4597;48.730;9.114;2023-08-01T00:26:02;3.20;;;2.63;;
9124;SDS011;4597;48.730;9.114;2023-08-01T00:28:28;3.33;;;2.67;;
9124;SDS011;4597;48.730;9.114;2023-08-01T00:31:04;2.80;;;2.60;;
9124;SDS011;4597;48.730;9.114;2023-08-01T00:33:31;3.30;;;2.83;;
9124;SDS011;4597;48.730;9.114;2023-08-01T00:35:57;2.60;;;2.50;;
9124;SDS011;4597;48.730;9.114;2023-08-01T00:38:22;3.73;;;3.10;;
9124;SDS011;4597;48.730;9.114;2023-08-01T00:40:48;3.43;;;3.13;;
9124;SDS011;4597;48.730;9.114;2023-08-01T00:43:15;3.20;;;2.90;;
9124;SDS011;4597;48.730;9.114;2023-08-01T00:45:40;3.10;;;2.87;;
9124;SDS011;4597;48.730;9.114;2023-08-01T00:48:06;3.27;;;3.07;;
9124;SDS011;4597;48.730;9.114;2023-08-01T00:50:32;4.07;;;3.20;;
9124;SDS011;4597;48.730;9.114;2023-08-01T00:52:58;4.77;;;3.63;;
9124;SDS011;4597;48.730;9.114;2023-08-01T00:55:23;2.87;;;2.60;;
9124;SDS011;4597;48.730;9.114;2023-08-01T00:57:51;3.00;;;2.80;;
9124;SDS011;4597;48.730;9.114;2023-08-01T01:00:18;3.10;;;2.80;;
9124;SDS011;4597;48.730;9.114;2023-08-01T01:02:43;3.73;;;3.10;;
9124;SDS011;4597;48.730;9.114;2023-08-01T01:05:09;3.03;;;2.80;;
9124;SDS011;4597;48.730;9.114;2023-08-01T01:07:35;3.30;;;2.53;;
9124;SDS011;4597;48.730;9.114;2023-08-01T01:10:01;2.73;;;2.53;;
9124;SDS011;4597;48.730;9.114;2023-08-01T01:12:27;3.03;;;2.77;;
9124;SDS011;4597;48.730;9.114;2023-08-01T01:14:53;3.10;;;2.80;;
9124;SDS011;4597;48.730;9.114;2023-08-01T01:17:18;3.20;;;2.90;;
9124;SDS011;4597;48.730;9.114;2023-08-01T01:19:44;3.47;;;3.17;;
9124;SDS011;4597;48.730;9.114;2023-08-01T01:22:09;3.50;;;2.70;;
9124;SDS011;4597;48.730;9.114;2023-08-01T01:24:36;2.63;;;2.43;;
9124;SDS011;4597;48.730;9.114;2023-08-01T01:27:03;3.00;;;2.70;;
9124;SDS011;4597;48.730;9.114;2023-08-01T01:29:30;3.77;;;2.83;;
9124;SDS011;4597;48.730;9.114;2023-08-01T01:31:57;3.83;;;3.53;;
9124;SDS011;4597;48.730;9.114;2023-08-01T01:34:25;3.00;;;2.80;;
9124;SDS011;4597;48.730;9.114;2023-08-01T01:36:52;3.50;;;3.20;;
9124;SDS011;4597;48.730;9.114;2023-08-01T01:39:18;3.30;;;2.70;;
9124;SDS011;4597;48.730;9.114;2023-08-01T01:41:43;3.57;;;3.10;;
9124;SDS011;4597;48.730;9.114;2023-08-01T01:44:09;4.73;;;2.83;;
9124;SDS011;4597;48.730;9.114;2023-08-01T01:46:34;3.40;;;2.97;;
9124;SDS011;4597;48.730;9.114;2023-08-01T01:49:00;3.57;;;2.60;;
9124;SDS011;4597;48.730;9.114;2023-08-01T01:51:25;3.73;;;3.03;;
9124;SDS011;4597;48.730;9.114;2023-08-01T01:53:51;4.13;;;3.00;;
9124;SDS011;4597;48.730;9.114;2023-08-01T01:56:17;2.90;;;2.60;;
9124;SDS011;4597;48.730;9.114;2023-08-01T01:58:43;3.43;;;2.93;;
9124;SDS011;4597;48.730;9.114;2023-08-01T02:01:08;3.27;;;3.00;;
9124;SDS011;4597;48.730;9.114;2023-08-01T02:03:34;3.57;;;3.27;;
9124;SDS011;4597;48.730;9.114;2023-08-01T02:06:00;3.33;;;2.87;;
9124;SDS011;4597;48.730;9.114;2023-08-01T02:08:28;3.77;;;3.10;;
9124;SDS011;4597;48.730;9.114;2023-08-01T02:10:54;3.37;;;3.00;;
9124;SDS011;4597;48.730;9.114;2023-08-01T02:13:23;3.37;;;2.97;;
9124;SDS011;4597;48.730;9.114;2023-08-01T02:15:49;3.80;;;3.20;;
9124;SDS011;4597;48.730;9.114;2023-08-01T02:18:14;4.77;;;2.90;;
9124;SDS011;4597;48.730;9.114;2023-08-01T02:20:40;4.60;;;2.60;;
9124;SDS011;4597;48.730;9.114;2023-08-01T02:23:05;3.97;;;3.60;;
9124;SDS011;4597;48.730;9.114;2023-08-01T02:25:31;3.03;;;2.83;;
9124;SDS011;4597;48.730;9.114;2023-08-01T02:27:56;3.67;;;3.13;;
9124;SDS011;4597;48.730;9.114;2023-08-01T02:30:22;3.37;;;3.17;;
9124;SDS011;4597;48.730;9.114;2023-08-01T02:32:47;3.67;;;2.53;;
9124;SDS011;4597;48.730;9.114;2023-08-01T02:35:13;3.80;;;3.07;;
9124;SDS011;4597;48.730;9.114;2023-08-01T02:37:38;2.70;;;2.50;;
9124;SDS011;4597;48.730;9.114;2023-08-01T02:40:04;2.97;;;2.67;;
9124;SDS011;4597;48.730;9.114;2023-08-01T02:42:32;3.87;;;3.23;;
9124;SDS011;4597;48.730;9.114;2023-08-01T02:44:58;3.90;;;3.50;;
9124;SDS011;4597;48.730;9.114;2023-08-01T02:47:23;3.87;;;2.80;;
9124;SDS011;4597;48.730;9.114;2023-08-01T02:49:49;3.20;;;2.90;;
9124;SDS011;4597;48.730;9.114;2023-08-01T02:52:14;3.13;;;2.77;;
9124;SDS011;4597;48.730;9.114;2023-08-01T02:54:40;3.40;;;2.97;;
9124;SDS011;4597;48.730;9.114;2023-08-01T02:57:05;3.13;;;2.83;;
9124;SDS011;4597;48.730;9.114;2023-08-01T02:59:31;3.17;;;2.97;;
9124;SDS011;4597;48.730;9.114;2023-08-01T03:01:58;3.00;;;2.80;;
9124;SDS011;4597;48.730;9.114;2023-08-01T03:04:24;3.23;;;2.93;;
9124;SDS011;4597;48.730;9.114;2023-08-01T03:06:49;3.67;;;3.37;;
9124;SDS011;4597;48.730;9.114;2023-08-01T03:09:15;4.17;;;2.87;;
9124;SDS011;4597;48.730;9.114;2023-08-01T03:11:41;3.97;;;3.13;;
9124;SDS011;4597;48.730;9.114;2023-08-01T03:14:06;3.17;;;2.97;;
9124;SDS011;4597;48.730;9.114;2023-08-01T03:16:32;2.77;;;2.57;;
9124;SDS011;4597;48.730;9.114;2023-08-01T03:18:58;3.20;;;2.90;;
9124;SDS011;4597;48.730;9.114;2023-08-01T03:21:29;3.07;;;2.73;;
9124;SDS011;4597;48.730;9.114;2023-08-01T03:23:57;3.73;;;2.73;;
9124;SDS011;4597;48.730;9.114;2023-08-01T03:26:23;2.87;;;2.63;;
9124;SDS011;4597;48.730;9.114;2023-08-01T03:28:48;4.03;;;2.90;;
9124;SDS011;4597;48.730;9.114;2023-08-01T03:31:14;3.20;;;2.90;;
9124;SDS011;4597;48.730;9.114;2023-08-01T03:33:40;4.13;;;2.60;;
9124;SDS011;4597;48.730;9.114;2023-08-01T03:36:05;2.80;;;2.57;;
9124;SDS011;4597;48.730;9.114;2023-08-01T03:38:31;3.17;;;2.80;;
9124;SDS011;4597;48.730;9.114;2023-08-01T03:40:57;4.77;;;3.50;;
9124;SDS011;4597;48.730;9.114;2023-08-01T03:43:22;5.40;;;3.30;;
9124;SDS011;4597;48.730;9.114;2023-08-01T03:45:49;2.90;;;2.70;;
9124;SDS011;4597;48.730;9.114;2023-08-01T03:48:15;3.07;;;2.77;;
9124;SDS011;4597;48.730;9.114;2023-08-01T03:50:40;3.07;;;2.77;;
9124;SDS011;4597;48.730;9.114;2023-08-01T03:53:06;3.97;;;2.97;;
9124;SDS011;4597;48.730;9.114;2023-08-01T03:55:32;3.03;;;2.73;;
9124;SDS011;4597;48.730;9.114;2023-08-01T03:57:58;2.93;;;2.73;;
9124;SDS011;4597;48.730;9.114;2023-08-01T04:00:23;2.90;;;2.70;;
9124;SDS011;4597;48.730;9.114;2023-08-01T04:02:49;3.60;;;3.30;;
9124;SDS011;4597;48.730;9.114;2023-08-01T04:05:14;2.70;;;2.50;;
9124;SDS011;4597;48.730;9.114;2023-08-01T04:07:40;4.10;;;2.37;;
9124;SDS011;4597;48.730;9.114;2023-08-01T04:10:06;4.07;;;2.60;;
9124;SDS011;4597;48.730;9.114;2023-08-01T04:12:32;2.80;;;2.60;;
9124;SDS011;4597;48.730;9.114;2023-08-01T04:14:59;3.13;;;2.40;;
9124;SDS011;4597;48.730;9.114;2023-08-01T04:17:25;2.80;;;2.43;;
9124;SDS011;4597;48.730;9.114;2023-08-01T04:19:51;2.50;;;2.27;;
9124;SDS011;4597;48.730;9.114;2023-08-01T04:22:16;3.33;;;2.60;;
9124;SDS011;4597;48.730;9.114;2023-08-01T04:24:42;2.60;;;2.40;;
9124;SDS011;4597;48.730;9.114;2023-08-01T04:27:08;2.40;;;2.20;;
9124;SDS011;4597;48.730;9.114;2023-08-01T04:29:34;2.93;;;2.43;;
9124;SDS011;4597;48.730;9.114;2023-08-01T04:31:59;3.67;;;2.30;;
9124;SDS011;4597;48.730;9.114;2023-08-01T04:34:25;2.57;;;2.07;;
9124;SDS011;4597;48.730;9.114;2023-08-01T04:36:50;2.77;;;2.40;;
9124;SDS011;4597;48.730;9.114;2023-08-01T04:39:16;2.67;;;2.37;;
9124;SDS011;4597;48.730;9.114;2023-08-01T04:41:41;2.47;;;2.27;;
9124;SDS011;4597;48.730;9.114;2023-08-01T04:44:07;2.27;;;2.07;;
9124;SDS011;4597;48.730;9.114;2023-08-01T04:46:32;2.50;;;2.30;;
9124;SDS011;4597;48.730;9.114;2023-08-01T04:48:58;2.43;;;2.10;;
9124;SDS011;4597;48.730;9.114;2023-08-01T04:51:24;2.40;;;2.27;;
9124;SDS011;4597;48.730;9.114;2023-08-01T04:53:49;5.87;;;2.50;;
9124;SDS011;4597;48.730;9.114;2023-08-01T04:56:15;2.77;;;2.57;;
9124;SDS011;4597;48.730;9.114;2023-08-01T04:58:41;2.87;;;2.30;;
9124;SDS011;4597;48.730;9.114;2023-08-01T05:01:06;2.30;;;2.10;;
9124;SDS011;4597;48.730;9.114;2023-08-01T05:03:32;2.43;;;2.23;;
9124;SDS011;4597;48.730;9.114;2023-08-01T05:05:57;3.43;;;2.23;;
9124;SDS011;4597;48.730;9.114;2023-08-01T05:08:23;2.57;;;2.07;;
9124;SDS011;4597;48.730;9.114;2023-08-01T05:10:48;3.47;;;2.30;;
9124;SDS011;4597;48.730;9.114;2023-08-01T05:13:14;2.33;;;2.23;;
9124;SDS011;4597;48.730;9.114;2023-08-01T05:15:39;2.50;;;2.37;;
9124;SDS011;4597;48.730;9.114;2023-08-01T05:18:05;2.67;;;2.47;;
9124;SDS011;4597;48.730;9.114;2023-08-01T05:20:30;2.27;;;2.07;;
9124;SDS011;4597;48.730;9.114;2023-08-01T05:22:57;3.33;;;2.43;;
9124;SDS011;4597;48.730;9.114;2023-08-01T05:25:24;2.77;;;2.57;;
9124;SDS011;4597;48.730;9.114;2023-08-01T05:27:49;2.37;;;2.20;;
9124;SDS011;4597;48.730;9.114;2023-08-01T05:30:15;2.50;;;2.30;;
9124;SDS011;4597;48.730;9.114;2023-08-01T05:32:40;2.70;;;2.40;;
9124;SDS011;4597;48.730;9.114;2023-08-01T05:35:08;2.10;;;2.00;;
9124;SDS011;4597;48.730;9.114;2023-08-01T05:37:34;3.03;;;2.27;;
9124;SDS011;4597;48.730;9.114;2023-08-01T05:40:00;2.87;;;2.67;;
9124;SDS011;4597;48.730;9.114;2023-08-01T05:42:27;2.60;;;2.33;;
9124;SDS011;4597;48.730;9.114;2023-08-01T05:44:53;2.60;;;2.40;;
9124;SDS011;4597;48.730;9.114;2023-08-01T05:47:18;3.27;;;2.43;;
9124;SDS011;4597;48.730;9.114;2023-08-01T05:49:44;2.87;;;2.67;;
9124;SDS011;4597;48.730;9.114;2023-08-01T05:52:09;2.33;;;2.23;;
9124;SDS011;4597;48.730;9.114;2023-08-01T05:54:35;2.70;;;2.50;;
9124;SDS011;4597;48.730;9.114;2023-08-01T05:57:00;3.20;;;2.27;;
9124;SDS011;4597;48.730;9.114;2023-08-01T05:59:26;2.20;;;2.00;;
9124;SDS011;4597;48.730;9.114;2023-08-01T06:01:51;3.37;;;2.30;;
9124;SDS011;4597;48.730;9.114;2023-08-01T06:04:17;2.80;;;2.60;;
9124;SDS011;4597;48.730;9.114;2023-08-01T06:06:43;2.93;;;2.63;;
9124;SDS011;4597;48.730;9.114;2023-08-01T06:09:08;2.23;;;2.13;;
9124;SDS011;4597;48.730;9.114;2023-08-01T06:11:33;3.20;;;2.30;;
9124;SDS011;4597;48.730;9.114;2023-08-01T06:13:59;2.67;;;2.53;;
9124;SDS011;4597;48.730;9.114;2023-08-01T06:16:25;2.40;;;2.20;;
9124;SDS011;4597;48.730;9.114;2023-08-01T06:18:51;2.50;;;2.27;;
9124;SDS011;4597;48.730;9.114;2023-08-01T06:21:18;3.70;;;2.10;;
9124;SDS011;4597;48.730;9.114;2023-08-01T06:23:43;6.77;;;3.10;;
9124;SDS011;4597;48.730;9.114;2023-08-01T06:26:09;2.77;;;2.50;;
9124;SDS011;4597;48.730;9.114;2023-08-01T06:28:34;3.73;;;2.60;;
9124;SDS011;4597;48.730;9.114;2023-08-01T06:31:00;2.73;;;2.40;;
9124;SDS011;4597;48.730;9.114;2023-08-01T06:33:25;5.97;;;2.70;;
9124;SDS011;4597;48.730;9.114;2023-08-01T06:35:51;4.13;;;2.90;;
9124;SDS011;4597;48.730;9.114;2023-08-01T06:38:16;5.00;;;3.10;;
9124;SDS011;4597;48.730;9.114;2023-08-01T06:40:42;3.30;;;2.33;;
9124;SDS011;4597;48.730;9.114;2023-08-01T06:43:08;4.67;;;3.00;;
9124;SDS011;4597;48.730;9.114;2023-08-01T06:45:33;4.17;;;2.90;;
9124;SDS011;4597;48.730;9.114;2023-08-01T06:47:59;4.23;;;3.20;;
9124;SDS011;4597;48.730;9.114;2023-08-01T06:50:24;3.10;;;2.83;;
9124;SDS011;4597;48.730;9.114;2023-08-01T06:52:50;4.33;;;3.03;;
9124;SDS011;4597;48.730;9.114;2023-08-01T06:55:16;3.07;;;2.87;;
9124;SDS011;4597;48.730;9.114;2023-08-01T06:57:41;2.70;;;2.50;;
9124;SDS011;4597;48.730;9.114;2023-08-01T07:00:07;3.17;;;2.83;;
9124;SDS011;4597;48.730;9.114;2023-08-01T07:02:33;2.70;;;2.50;;
9124;SDS011;4597;48.730;9.114;2023-08-01T07:04:59;3.73;;;3.00;;
9124;SDS011;4597;48.730;9.114;2023-08-01T07:07:24;3.17;;;2.83;;
9124;SDS011;4597;48.730;9.114;2023-08-01T07:09:50;3.07;;;2.87;;
9124;SDS011;4597;48.730;9.114;2023-08-01T07:12:15;3.60;;;3.30;;
9124;SDS011;4597;48.730;9.114;2023-08-01T07:14:41;3.03;;;2.80;;
9124;SDS011;4597;48.730;9.114;2023-08-01T07:17:06;3.40;;;3.10;;
9124;SDS011;4597;48.730;9.114;2023-08-01T07:19:32;3.97;;;3.10;;
9124;SDS011;4597;48.730;9.114;2023-08-01T07:21:57;3.00;;;2.80;;
9124;SDS011;4597;48.730;9.114;2023-08-01T07:24:23;4.00;;;3.37;;
9124;SDS011;4597;48.730;9.114;2023-08-01T07:26:48;4.90;;;3.53;;
9124;SDS011;4597;48.730;9.114;2023-08-01T07:29:14;3.80;;;3.30;;
9124;SDS011;4597;48.730;9.114;2023-08-01T07:31:40;3.93;;;3.40;;
9124;SDS011;4597;48.730;9.114;2023-08-01T07:34:06;3.33;;;3.10;;
9124;SDS011;4597;48.730;9.114;2023-08-01T07:36:32;3.93;;;3.63;;
9124;SDS011;4597;48.730;9.114;2023-08-01T07:38:58;4.00;;;3.60;;
9124;SDS011;4597;48.730;9.114;2023-08-01T07:41:23;4.57;;;3.23;;
9124;SDS011;4597;48.730;9.114;2023-08-01T07:43:49;3.63;;;3.30;;
9124;SDS011;4597;48.730;9.114;2023-08-01T07:46:14;3.27;;;2.97;;
9124;SDS011;4597;48.730;9.114;2023-08-01T07:48:40;3.83;;;3.47;;
9124;SDS011;4597;48.730;9.114;2023-08-01T07:51:05;3.40;;;3.10;;
9124;SDS011;4597;48.730;9.114;2023-08-01T07:53:32;3.63;;;3.33;;
9124;SDS011;4597;48.730;9.114;2023-08-01T07:55:58;3.60;;;3.30;;
9124;SDS011;4597;48.730;9.114;2023-08-01T07:58:24;3.17;;;2.87;;
9124;SDS011;4597;48.730;9.114;2023-08-01T08:00:50;3.60;;;3.30;;
9124;SDS011;4597;48.730;9.114;2023-08-01T08:03:15;3.70;;;3.30;;
9124;SDS011;4597;48.730;9.114;2023-08-01T08:05:41;3.50;;;3.20;;
9124;SDS011;4597;48.730;9.114;2023-08-01T08:08:06;3.20;;;2.90;;
9124;SDS011;4597;48.730;9.114;2023-08-01T08:10:32;3.13;;;2.87;;
9124;SDS011;4597;48.730;9.114;2023-08-01T08:12:57;2.80;;;2.60;;
9124;SDS011;4597;48.730;9.114;2023-08-01T08:15:23;2.90;;;2.60;;
9124;SDS011;4597;48.730;9.114;2023-08-01T08:17:49;3.50;;;3.30;;
9124;SDS011;4597;48.730;9.114;2023-08-01T08:20:15;4.00;;;3.27;;
9124;SDS011;4597;48.730;9.114;2023-08-01T08:22:40;3.20;;;2.90;;
9124;SDS011;4597;48.730;9.114;2023-08-01T08:25:06;3.23;;;2.93;;
9124;SDS011;4597;48.730;9.114;2023-08-01T08:27:32;3.00;;;2.80;;
9124;SDS011;4597;48.730;9.114;2023-08-01T08:29:57;5.43;;;3.30;;
9124;SDS011;4597;48.730;9.114;2023-08-01T08:32:23;2.83;;;2.63;;
9124;SDS011;4597;48.730;9.114;2023-08-01T08:34:48;2.70;;;2.50;;
9124;SDS011;4597;48.730;9.114;2023-08-01T08:37:14;2.77;;;2.57;;
9124;SDS011;4597;48.730;9.114;2023-08-01T08:39:39;2.67;;;2.33;;
9124;SDS011;4597;48.730;9.114;2023-08-01T08:42:05;2.57;;;2.37;;
9124;SDS011;4597;48.730;9.114;2023-08-01T08:44:30;2.20;;;2.10;;
9124;SDS011;4597;48.730;9.114;2023-08-01T08:47:02;2.97;;;2.43;;
9124;SDS011;4597;48.730;9.114;2023-08-01T08:49:29;2.17;;;2.07;;
9124;SDS011;4597;48.730;9.114;2023-08-01T08:51:56;2.43;;;2.30;;
9124;SDS011;4597;48.730;9.114;2023-08-01T08:54:21;2.60;;;2.20;;
9124;SDS011;4597;48.730;9.114;2023-08-01T08:56:48;2.50;;;2.30;;
9124;SDS011;4597;48.730;9.114;2023-08-01T08:59:14;2.20;;;2.00;;
9124;SDS011;4597;48.730;9.114;2023-08-01T09:01:40;2.20;;;1.87;;
9124;SDS011;4597;48.730;9.114;2023-08-01T09:04:06;2.30;;;2.00;;
9124;SDS011;4597;48.730;9.114;2023-08-01T09:06:32;1.73;;;1.63;;
9124;SDS011;4597;48.730;9.114;2023-08-01T09:09:12;1.97;;;1.87;;
9124;SDS011;4597;48.730;9.114;2023-08-01T09:11:49;2.27;;;2.17;;
9124;SDS011;4597;48.730;9.114;2023-08-01T09:14:16;2.13;;;1.90;;
9124;SDS011;4597;48.730;9.114;2023-08-01T09:16:42;2.03;;;1.77;;
9124;SDS011;4597;48.730;9.114;2023-08-01T09:19:09;3.17;;;2.20;;
9124;SDS011;4597;48.730;9.114;2023-08-01T09:21:38;2.03;;;1.83;;
9124;SDS011;4597;48.730;9.114;2023-08-01T09:24:07;1.83;;;1.73;;
9124;SDS011;4597;48.730;9.114;2023-08-01T09:26:34;1.97;;;1.87;;
9124;SDS011;4597;48.730;9.114;2023-08-01T09:28:59;1.63;;;1.53;;
9124;SDS011;4597;48.730;9.114;2023-08-01T09:31:26;1.30;;;1.30;;
9124;SDS011;4597;48.730;9.114;2023-08-01T09:33:55;1.83;;;1.70;;
9124;SDS011;4597;48.730;9.114;2023-08-01T09:36:21;0.90;;;0.80;;
9124;SDS011;4597;48.730;9.114;2023-08-01T09:38:47;0.67;;;0.67;;
9124;SDS011;4597;48.730;9.114;2023-08-01T09:41:19;0.60;;;0.57;;
9124;SDS011;4597;48.730;9.114;2023-08-01T09:43:46;0.57;;;0.57;;
9124;SDS011;4597;48.730;9.114;2023-08-01T09:46:12;1.23;;;0.80;;
9124;SDS011;4597;48.730;9.114;2023-08-01T09:48:38;1.03;;;1.03;;
9124;SDS011;4597;48.730;9.114;2023-08-01T09:51:05;0.50;;;0.50;;
9124;SDS011;4597;48.730;9.114;2023-08-01T09:53:47;0.70;;;0.70;;
9124;SDS011;4597;48.730;9.114;2023-08-01T09:58:47;0.70;;;0.70;;
9124;SDS011;4597;48.730;9.114;2023-08-01T10:01:14;0.53;;;0.53;;
9124;SDS011;4597;48.730;9.114;2023-08-01T10:03:47;0.60;;;0.60;;
9124;SDS011;4597;48.730;9.114;2023-08-01T10:06:19;0.70;;;0.70;;
9124;SDS011;4597;48.730;9.114;2023-08-01T10:08:46;0.70;;;0.70;;
9124;SDS011;4597;48.730;9.114;2023-08-01T10:11:14;0.90;;;0.90;;
9124;SDS011;4597;48.730;9.114;2023-08-01T10:13:41;0.70;;;0.70;;
9124;SDS011;4597;48.730;9.114;2023-08-01T10:16:08;0.67;;;0.67;;
9124;SDS011;4597;48.730;9.114;2023-08-01T10:18:34;0.90;;;0.90;;
9124;SDS011;4597;48.730;9.114;2023-08-01T10:21:02;1.23;;;1.13;;
9124;SDS011;4597;48.730;9.114;2023-08-01T10:23:30;0.90;;;0.90;;
9124;SDS011;4597;48.730;9.114;2023-08-01T10:25:57;0.73;;;0.73;;
9124;SDS011;4597;48.730;9.114;2023-08-01T10:28:33;1.00;;;1.00;;
9124;SDS011;4597;48.730;9.114;2023-08-01T10:31:10;0.97;;;0.97;;
9124;SDS011;4597;48.730;9.114;2023-08-01T10:33:37;0.87;;;0.87;;
9124;SDS011;4597;48.730;9.114;2023-08-01T10:36:13;0.90;;;0.90;;
9124;SDS011;4597;48.730;9.114;2023-08-01T10:38:47;1.00;;;1.00;;
9124;SDS011;4597;48.730;9.114;2023-08-01T10:41:21;1.10;;;1.10;;
9124;SDS011;4597;48.730;9.114;2023-08-01T10:49:33;1.23;;;1.10;;
9124;SDS011;4597;48.730;9.114;2023-08-01T10:52:02;1.50;;;1.40;;
9124;SDS011;4597;48.730;9.114;2023-08-01T10:54:28;1.00;;;1.00;;
9124;SDS011;4597;48.730;9.114;2023-08-01T10:56:55;1.33;;;1.17;;
9124;SDS011;4597;48.730;9.114;2023-08-01T10:59:25;1.43;;;1.30;;
9124;SDS011;4597;48.730;9.114;2023-08-01T11:01:51;1.20;;;1.20;;
9124;SDS011;4597;48.730;9.114;2023-08-01T11:04:18;1.20;;;1.20;;
9124;SDS011;4597;48.730;9.114;2023-08-01T11:06:49;1.20;;;1.20;;
9124;SDS011;4597;48.730;9.114;2023-08-01T11:09:21;1.10;;;1.10;;
9124;SDS011;4597;48.730;9.114;2023-08-01T11:11:49;1.20;;;1.20;;
9124;SDS011;4597;48.730;9.114;2023-08-01T11:14:16;1.00;;;1.00;;
9124;SDS011;4597;48.730;9.114;2023-08-01T11:16:44;1.20;;;1.10;;
9124;SDS011;4597;48.730;9.114;2023-08-01T11:21:49;1.00;;;1.00;;
9124;SDS011;4597;48.730;9.114;2023-08-01T11:24:15;1.40;;;1.30;;
9124;SDS011;4597;48.730;9.114;2023-08-01T11:26:45;1.43;;;1.30;;
9124;SDS011;4597;48.730;9.114;2023-08-01T11:29:13;1.10;;;1.10;;
9124;SDS011;4597;48.730;9.114;2023-08-01T11:31:39;1.13;;;1.00;;
9124;SDS011;4597;48.730;9.114;2023-08-01T11:34:08;1.10;;;1.10;;
9124;SDS011;4597;48.730;9.114;2023-08-01T11:36:37;1.40;;;1.30;;
9124;SDS011;4597;48.730;9.114;2023-08-01T11:39:03;1.20;;;1.10;;
9124;SDS011;4597;48.730;9.114;2023-08-01T11:41:29;1.40;;;1.30;;
9124;SDS011;4597;48.730;9.114;2023-08-01T11:43:55;1.10;;;1.10;;
9124;SDS011;4597;48.730;9.114;2023-08-01T11:46:30;1.30;;;1.20;;
9124;SDS011;4597;48.730;9.114;2023-08-01T11:48:57;1.30;;;1.20;;
9124;SDS011;4597;48.730;9.114;2023-08-01T11:51:23;1.70;;;1.30;;
9124;SDS011;4597;48.730;9.114;2023-08-01T11:53:59;1.40;;;1.13;;
9124;SDS011;4597;48.730;9.114;2023-08-01T11:56:29;1.47;;;1.37;;
9124;SDS011;4597;48.730;9.114;2023-08-01T11:58:55;1.43;;;1.30;;
9124;SDS011;4597;48.730;9.114;2023-08-01T12:01:21;1.30;;;1.30;;
9124;SDS011;4597;48.730;9.114;2023-08-01T12:03:48;1.97;;;1.60;;
9124;SDS011;4597;48.730;9.114;2023-08-01T12:06:16;1.30;;;1.30;;
9124;SDS011;4597;48.730;9.114;2023-08-01T12:08:43;1.30;;;1.20;;
9124;SDS011;4597;48.730;9.114;2023-08-01T12:11:23;1.57;;;1.50;;
9124;SDS011;4597;48.730;9.114;2023-08-01T12:16:29;1.70;;;1.60;;
9124;SDS011;4597;48.730;9.114;2023-08-01T12:18:55;1.43;;;1.40;;
9124;SDS011;4597;48.730;9.114;2023-08-01T12:21:21;1.83;;;1.73;;
9124;SDS011;4597;48.730;9.114;2023-08-01T12:23:46;1.40;;;1.30;;
9124;SDS011;4597;48.730;9.114;2023-08-01T12:26:12;1.77;;;1.50;;
9124;SDS011;4597;48.730;9.114;2023-08-01T12:28:37;1.43;;;1.30;;
9124;SDS011;4597;48.730;9.114;2023-08-01T12:31:03;2.03;;;1.47;;
9124;SDS011;4597;48.730;9.114;2023-08-01T12:33:29;1.57;;;1.20;;
9124;SDS011;4597;48.730;9.114;2023-08-01T12:35:55;2.30;;;1.40;;
9124;SDS011;4597;48.730;9.114;2023-08-01T12:38:20;2.50;;;1.50;;
9124;SDS011;4597;48.730;9.114;2023-08-01T12:40:46;1.67;;;1.57;;
9124;SDS011;4597;48.730;9.114;2023-08-01T12:43:12;1.50;;;1.40;;
9124;SDS011;4597;48.730;9.114;2023-08-01T12:45:37;1.40;;;1.40;;
9124;SDS011;4597;48.730;9.114;2023-08-01T12:48:03;1.40;;;1.40;;
9124;SDS011;4597;48.730;9.114;2023-08-01T12:50:29;1.63;;;1.53;;
9124;SDS011;4597;48.730;9.114;2023-08-01T12:52:54;1.43;;;1.33;;
9124;SDS011;4597;48.730;9.114;2023-08-01T12:55:20;2.30;;;1.60;;
9124;SDS011;4597;48.730;9.114;2023-08-01T12:57:46;1.87;;;1.60;;
9124;SDS011;4597;48.730;9.114;2023-08-01T13:00:11;1.50;;;1.40;;
9124;SDS011;4597;48.730;9.114;2023-08-01T13:02:37;1.60;;;1.50;;
9124;SDS011;4597;48.730;9.114;2023-08-01T13:05:03;1.53;;;1.43;;
9124;SDS011;4597;48.730;9.114;2023-08-01T13:07:29;1.20;;;1.20;;
9124;SDS011;4597;48.730;9.114;2023-08-01T13:09:57;1.17;;;1.13;;
9124;SDS011;4597;48.730;9.114;2023-08-01T13:12:23;1.80;;;1.33;;
9124;SDS011;4597;48.730;9.114;2023-08-01T13:14:49;1.93;;;1.60;;
9124;SDS011;4597;48.730;9.114;2023-08-01T13:17:14;1.57;;;1.47;;
9124;SDS011;4597;48.730;9.114;2023-08-01T13:19:40;1.40;;;1.30;;
9124;SDS011;4597;48.730;9.114;2023-08-01T13:22:05;1.47;;;1.37;;
9124;SDS011;4597;48.730;9.114;2023-08-01T13:24:31;1.83;;;1.73;;
9124;SDS011;4597;48.730;9.114;2023-08-01T13:26:57;2.67;;;1.60;;
9124;SDS011;4597;48.730;9.114;2023-08-01T13:29:23;1.30;;;1.30;;
9124;SDS011;4597;48.730;9.114;2023-08-01T13:31:48;1.27;;;1.27;;
9124;SDS011;4597;48.730;9.114;2023-08-01T13:34:14;1.60;;;1.50;;
9124;SDS011;4597;48.730;9.114;2023-08-01T13:36:39;1.37;;;1.37;;
9124;SDS011;4597;48.730;9.114;2023-08-01T13:39:05;1.37;;;1.27;;
9124;SDS011;4597;48.730;9.114;2023-08-01T13:41:31;1.98;;;1.10;;
9124;SDS011;4597;48.730;9.114;2023-08-01T13:43:57;1.42;;;1.23;;
9124;SDS011;4597;48.730;9.114;2023-08-01T13:46:23;2.58;;;1.30;;
9124;SDS011;4597;48.730;9.114;2023-08-01T13:48:48;1.50;;;1.40;;
9124;SDS011;4597;48.730;9.114;2023-08-01T13:51:14;1.60;;;1.50;;
9124;SDS011;4597;48.730;9.114;2023-08-01T13:53:39;1.30;;;1.25;;
9124;SDS011;4597;48.730;9.114;2023-08-01T13:56:08;2.13;;;1.60;;
9124;SDS011;4597;48.730;9.114;2023-08-01T13:58:34;1.80;;;1.15;;
9124;SDS011;4597;48.730;9.114;2023-08-01T14:01:06;1.63;;;1.52;;
9124;SDS011;4597;48.730;9.114;2023-08-01T14:03:36;1.50;;;1.40;;
9124;SDS011;4597;48.730;9.114;2023-08-01T14:06:07;1.77;;;1.67;;
9124;SDS011;4597;48.730;9.114;2023-08-01T14:08:34;1.50;;;1.40;;
9124;SDS011;4597;48.730;9.114;2023-08-01T14:11:01;1.67;;;1.57;;
9124;SDS011;4597;48.730;9.114;2023-08-01T14:13:27;1.52;;;1.42;;
9124;SDS011;4597;48.730;9.114;2023-08-01T14:15:52;1.45;;;1.35;;
9124;SDS011;4597;48.730;9.114;2023-08-01T14:18:18;1.50;;;1.40;;
9124;SDS011;4597;48.730;9.114;2023-08-01T14:20:44;1.88;;;1.30;;
9124;SDS011;4597;48.730;9.114;2023-08-01T14:23:09;2.13;;;1.73;;
9124;SDS011;4597;48.730;9.114;2023-08-01T14:25:35;1.65;;;1.50;;
9124;SDS011;4597;48.730;9.114;2023-08-01T14:28:00;1.48;;;1.38;;
9124;SDS011;4597;48.730;9.114;2023-08-01T14:30:26;1.50;;;1.40;;
9124;SDS011;4597;48.730;9.114;2023-08-01T14:32:58;1.77;;;1.50;;
9124;SDS011;4597;48.730;9.114;2023-08-01T14:35:25;1.73;;;1.63;;
9124;SDS011;4597;48.730;9.114;2023-08-01T14:37:51;1.58;;;1.48;;
9124;SDS011;4597;48.730;9.114;2023-08-01T14:40:16;1.27;;;1.27;;
9124;SDS011;4597;48.730;9.114;2023-08-01T14:42:42;1.45;;;1.40;;
9124;SDS011;4597;48.730;9.114;2023-08-01T14:45:07;1.20;;;1.20;;
9124;SDS011;4597;48.730;9.114;2023-08-01T14:47:33;1.85;;;1.30;;
9124;SDS011;4597;48.730;9.114;2023-08-01T14:49:59;1.60;;;1.50;;
9124;SDS011;4597;48.730;9.114;2023-08-01T14:52:25;2.42;;;2.00;;
9124;SDS011;4597;48.730;9.114;2023-08-01T14:54:50;1.60;;;1.50;;
9124;SDS011;4597;48.730;9.114;2023-08-01T14:57:16;1.80;;;1.70;;
9124;SDS011;4597;48.730;9.114;2023-08-01T14:59:41;2.30;;;1.60;;
9124;SDS011;4597;48.730;9.114;2023-08-01T15:02:07;2.15;;;1.98;;
9124;SDS011;4597;48.730;9.114;2023-08-01T15:04:32;1.65;;;1.50;;
9124;SDS011;4597;48.730;9.114;2023-08-01T15:07:00;1.70;;;1.60;;
9124;SDS011;4597;48.730;9.114;2023-08-01T15:09:27;1.75;;;1.65;;
9124;SDS011;4597;48.730;9.114;2023-08-01T15:11:52;1.90;;;1.50;;
9124;SDS011;4597;48.730;9.114;2023-08-01T15:14:18;2.25;;;1.67;;
9124;SDS011;4597;48.730;9.114;2023-08-01T15:16:43;1.63;;;1.52;;
9124;SDS011;4597;48.730;9.114;2023-08-01T15:19:09;2.33;;;2.15;;
9124;SDS011;4597;48.730;9.114;2023-08-01T15:21:34;1.60;;;1.50;;
9124;SDS011;4597;48.730;9.114;2023-08-01T15:24:00;1.30;;;1.30;;